createdAt,value
2023-04-25T00:00:45.335Z,25.07
2023-04-25T00:01:45.400Z,25.07
2023-04-25T00:02:45.559Z,25.05
2023-04-25T00:03:45.688Z,25.05
2023-04-25T00:04:45.876Z,25.05
2023-04-25T00:05:45.622Z,25.05
2023-04-25T00:06:45.606Z,25.05
2023-04-25T00:07:45.694Z,25.05
2023-04-25T00:08:45.700Z,25.05
2023-04-25T00:09:45.768Z,25.05
2023-04-25T00:10:46.624Z,25.05
2023-04-25T00:11:45.858Z,25.06
2023-04-25T00:12:45.875Z,25.05
2023-04-25T00:13:45.981Z,25.05
2023-04-25T00:14:45.974Z,25.05
2023-04-25T00:15:46.075Z,25.05
2023-04-25T00:16:46.099Z,25.05
2023-04-25T00:17:46.134Z,25.04
2023-04-25T00:18:46.182Z,25.04
2023-04-25T00:19:46.259Z,25.05
2023-04-25T00:20:46.272Z,25.05
2023-04-25T00:21:46.329Z,25.04
2023-04-25T00:22:46.385Z,25.04
2023-04-25T00:23:46.414Z,25.04
2023-04-25T00:24:46.451Z,25.03
2023-04-25T00:25:46.521Z,25.03
2023-04-25T00:26:46.582Z,25.03
2023-04-25T00:27:46.599Z,25.03
2023-04-25T00:28:46.645Z,25.03
2023-04-25T00:29:46.710Z,25.03
2023-04-25T00:30:46.741Z,25.02
2023-04-25T00:31:46.875Z,25.02
2023-04-25T00:32:46.938Z,25.02
2023-04-25T00:33:46.900Z,25.02
2023-04-25T00:34:46.956Z,25.02
2023-04-25T00:35:46.966Z,25.02
2023-04-25T00:36:47.081Z,25.03
2023-04-25T00:37:47.093Z,25.02
2023-04-25T00:38:47.130Z,25.02
2023-04-25T00:39:47.155Z,25.03
2023-04-25T00:40:47.190Z,25.03
2023-04-25T00:41:47.265Z,25.02
2023-04-25T00:42:47.283Z,25.02
2023-04-25T00:43:47.355Z,25.02
2023-04-25T00:44:47.392Z,25.02
2023-04-25T00:45:47.424Z,25.02
2023-04-25T00:46:47.539Z,25.02
2023-04-25T00:47:47.590Z,25.02
2023-04-25T00:48:47.577Z,25.02
2023-04-25T00:49:47.643Z,25.02
2023-04-25T00:50:47.687Z,25.01
2023-04-25T00:51:47.726Z,25.02
2023-04-25T00:52:47.774Z,25.02
2023-04-25T00:53:47.842Z,25.01
2023-04-25T00:54:47.875Z,25.01
2023-04-25T00:55:47.913Z,25.01
2023-04-25T00:56:47.974Z,25.01
2023-04-25T00:57:48.014Z,25.01
2023-04-25T00:58:48.038Z,25.01
2023-04-25T00:59:48.086Z,25.01
2023-04-25T01:00:48.207Z,25.01
2023-04-25T01:01:48.232Z,25.01
2023-04-25T01:02:48.460Z,25.00
2023-04-25T01:03:48.408Z,25.01
2023-04-25T01:04:48.340Z,25.00
2023-04-25T01:05:48.398Z,25.00
2023-04-25T01:06:48.452Z,25.00
2023-04-25T01:07:48.498Z,25.00
2023-04-25T01:08:48.517Z,25.00
2023-04-25T01:09:48.617Z,24.99
2023-04-25T01:10:48.614Z,25.00
2023-04-25T01:11:48.678Z,25.00
2023-04-25T01:12:48.774Z,25.00
2023-04-25T01:13:49.159Z,25.00
2023-04-25T01:14:48.833Z,24.99
2023-04-25T01:15:48.868Z,24.99
2023-04-25T01:16:48.955Z,24.99
2023-04-25T01:17:49.043Z,24.99
2023-04-25T01:18:49.064Z,24.99
2023-04-25T01:19:49.101Z,25.00
2023-04-25T01:20:49.154Z,24.99
2023-04-25T01:21:49.194Z,24.99
2023-04-25T01:22:49.252Z,24.99
2023-04-25T01:23:49.502Z,24.99
2023-04-25T01:24:49.340Z,24.98
2023-04-25T01:25:49.377Z,24.99
2023-04-25T01:26:49.440Z,24.98
2023-04-25T01:27:49.553Z,24.98
2023-04-25T01:28:49.493Z,24.98
2023-04-25T01:29:49.577Z,24.98
2023-04-25T01:30:49.629Z,24.98
2023-04-25T01:31:49.682Z,24.98
2023-04-25T01:32:49.753Z,24.97
2023-04-25T01:33:49.978Z,24.98
2023-04-25T01:34:49.834Z,24.98
2023-04-25T01:35:49.861Z,24.97
2023-04-25T01:36:49.914Z,24.97
2023-04-25T01:37:49.997Z,24.97
2023-04-25T01:38:50.029Z,24.97
2023-04-25T01:39:50.111Z,24.97
2023-04-25T01:40:50.141Z,24.97
2023-04-25T01:41:50.187Z,24.96
2023-04-25T01:42:50.238Z,24.97
2023-04-25T01:43:50.449Z,24.97
2023-04-25T01:44:50.385Z,24.96
2023-04-25T01:45:50.436Z,24.96
2023-04-25T01:46:50.480Z,24.96
2023-04-25T01:47:50.610Z,24.97
2023-04-25T01:48:50.583Z,24.96
2023-04-25T01:49:50.651Z,24.96
2023-04-25T01:50:50.722Z,24.96
2023-04-25T01:51:50.751Z,24.96
2023-04-25T01:52:50.809Z,24.96
2023-04-25T01:53:51.066Z,24.95
2023-04-25T01:54:50.929Z,24.96
2023-04-25T01:55:50.953Z,24.95
2023-04-25T01:56:50.990Z,24.95
2023-04-25T01:57:51.053Z,24.94
2023-04-25T01:58:51.122Z,24.94
2023-04-25T01:59:51.150Z,24.95
2023-04-25T02:00:51.226Z,24.95
2023-04-25T02:01:51.381Z,24.95
2023-04-25T02:02:51.404Z,24.95
2023-04-25T02:03:51.804Z,24.95
2023-04-25T02:04:51.632Z,24.94
2023-04-25T02:05:51.510Z,24.94
2023-04-25T02:06:51.562Z,24.95
2023-04-25T02:07:51.645Z,24.94
2023-04-25T02:08:51.656Z,24.94
2023-04-25T02:09:51.722Z,24.94
2023-04-25T02:10:51.803Z,24.94
2023-04-25T02:11:51.859Z,24.94
2023-04-25T02:12:51.908Z,24.94
2023-04-25T02:13:52.178Z,24.93
2023-04-25T02:14:52.041Z,24.94
2023-04-25T02:15:52.162Z,24.93
2023-04-25T02:16:52.294Z,24.92
2023-04-25T02:17:52.270Z,24.92
2023-04-25T02:18:52.262Z,24.93
2023-04-25T02:19:52.342Z,24.92
2023-04-25T02:20:52.404Z,24.92
2023-04-25T02:21:52.416Z,24.93
2023-04-25T02:22:52.483Z,24.92
2023-04-25T02:23:52.737Z,24.93
2023-04-25T02:24:52.592Z,24.93
2023-04-25T02:25:52.669Z,24.92
2023-04-25T02:26:52.730Z,24.93
2023-04-25T02:27:52.774Z,24.92
2023-04-25T02:28:52.837Z,24.92
2023-04-25T02:29:52.909Z,24.92
2023-04-25T02:30:53.032Z,24.93
2023-04-25T02:31:53.110Z,24.92
2023-04-25T02:32:53.141Z,24.92
2023-04-25T02:33:53.339Z,24.92
2023-04-25T02:34:53.164Z,24.92
2023-04-25T02:35:53.240Z,24.92
2023-04-25T02:36:53.314Z,24.92
2023-04-25T02:37:53.393Z,24.92
2023-04-25T02:38:53.438Z,24.91
2023-04-25T02:39:53.473Z,24.92
2023-04-25T02:40:53.561Z,24.91
2023-04-25T02:41:53.601Z,24.91
2023-04-25T02:42:53.639Z,24.91
2023-04-25T02:43:53.692Z,24.91
2023-04-25T02:44:53.780Z,24.92
2023-04-25T02:45:53.836Z,24.92
2023-04-25T02:46:54.047Z,24.91
2023-04-25T02:47:54.012Z,24.91
2023-04-25T02:48:54.007Z,24.91
2023-04-25T02:49:54.089Z,24.91
2023-04-25T02:50:54.139Z,24.90
2023-04-25T02:51:54.189Z,24.91
2023-04-25T02:52:54.264Z,24.91
2023-04-25T02:53:54.312Z,24.92
2023-04-25T02:54:54.403Z,24.91
2023-04-25T02:55:54.459Z,24.91
2023-04-25T02:56:54.486Z,24.91
2023-04-25T02:57:54.578Z,24.90
2023-04-25T02:58:54.646Z,24.90
2023-04-25T02:59:54.685Z,24.91
2023-04-25T03:00:54.781Z,24.90
2023-04-25T03:01:54.804Z,24.90
2023-04-25T03:02:54.992Z,24.90
2023-04-25T03:03:55.318Z,24.89
2023-04-25T03:04:54.970Z,24.90
2023-04-25T03:05:55.029Z,24.90
2023-04-25T03:06:55.126Z,24.90
2023-04-25T03:07:55.174Z,24.90
2023-04-25T03:08:55.240Z,24.89
2023-04-25T03:09:55.320Z,24.90
2023-04-25T03:10:55.383Z,24.90
2023-04-25T03:11:55.405Z,24.90
2023-04-25T03:12:55.487Z,24.89
2023-04-25T03:13:55.578Z,24.89
2023-04-25T03:14:55.600Z,24.89
2023-04-25T03:15:55.676Z,24.89
2023-04-25T03:16:55.807Z,24.90
2023-04-25T03:17:55.858Z,24.90
2023-04-25T03:18:55.876Z,24.90
2023-04-25T03:19:55.940Z,24.90
2023-04-25T03:20:55.972Z,24.91
2023-04-25T03:21:56.026Z,24.92
2023-04-25T03:22:56.074Z,24.93
2023-04-25T03:23:56.141Z,24.93
2023-04-25T03:24:56.188Z,24.93
2023-04-25T03:25:56.239Z,24.94
2023-04-25T03:26:56.297Z,24.94
2023-04-25T03:27:56.341Z,24.96
2023-04-25T03:28:56.426Z,24.97
2023-04-25T03:29:56.452Z,24.98
2023-04-25T03:30:56.486Z,24.99
2023-04-25T03:31:56.577Z,25.00
2023-04-25T03:32:56.645Z,25.01
2023-04-25T03:33:56.623Z,25.03
2023-04-25T03:34:56.690Z,25.04
2023-04-25T03:35:56.691Z,25.07
2023-04-25T03:36:56.729Z,25.08
2023-04-25T03:37:56.795Z,25.10
2023-04-25T03:38:56.825Z,25.12
2023-04-25T03:39:56.863Z,25.14
2023-04-25T03:40:56.892Z,25.15
2023-04-25T03:41:56.918Z,25.17
2023-04-25T03:42:56.955Z,25.19
2023-04-25T03:43:56.975Z,25.21
2023-04-25T03:44:56.988Z,25.23
2023-04-25T03:45:57.031Z,25.25
2023-04-25T03:46:57.047Z,25.26
2023-04-25T03:47:57.100Z,25.28
2023-04-25T03:48:57.073Z,25.30
2023-04-25T03:49:57.091Z,25.32
2023-04-25T03:50:57.116Z,25.33
2023-04-25T03:51:57.147Z,25.36
2023-04-25T03:52:57.150Z,25.37
2023-04-25T03:53:57.153Z,25.38
2023-04-25T03:54:57.128Z,25.39
2023-04-25T03:55:57.134Z,25.41
2023-04-25T03:56:57.158Z,25.43
2023-04-25T03:57:57.174Z,25.44
2023-04-25T03:58:57.163Z,25.45
2023-04-25T03:59:57.169Z,25.46
2023-04-25T04:00:57.189Z,25.46
2023-04-25T04:01:57.170Z,25.48
2023-04-25T04:02:57.321Z,25.48
2023-04-25T04:03:57.678Z,25.50
2023-04-25T04:04:57.297Z,25.52
2023-04-25T04:05:57.259Z,25.53
2023-04-25T04:06:57.214Z,25.53
2023-04-25T04:07:57.179Z,25.55
2023-04-25T04:08:57.204Z,25.55
2023-04-25T04:09:57.175Z,25.57
2023-04-25T04:10:57.181Z,25.57
2023-04-25T04:11:57.188Z,25.57
2023-04-25T04:12:57.158Z,25.58
2023-04-25T04:13:57.159Z,25.59
2023-04-25T04:14:57.175Z,25.60
2023-04-25T04:15:57.220Z,25.60
2023-04-25T04:16:57.157Z,25.62
2023-04-25T04:17:57.197Z,25.62
2023-04-25T04:18:57.134Z,25.64
2023-04-25T04:19:57.141Z,25.65
2023-04-25T04:20:57.110Z,25.65
2023-04-25T04:21:57.115Z,25.66
2023-04-25T04:22:57.084Z,25.67
2023-04-25T04:23:57.084Z,25.66
2023-04-25T04:24:57.077Z,25.68
2023-04-25T04:25:57.063Z,25.69
2023-04-25T04:26:57.031Z,25.69
2023-04-25T04:27:57.039Z,25.70
2023-04-25T04:28:56.997Z,25.70
2023-04-25T04:29:56.980Z,25.72
2023-04-25T04:30:56.993Z,25.73
2023-04-25T04:31:57.022Z,25.73
2023-04-25T04:32:57.085Z,25.73
2023-04-25T04:33:56.937Z,25.74
2023-04-25T04:34:56.907Z,25.74
2023-04-25T04:35:56.887Z,25.74
2023-04-25T04:36:56.881Z,25.73
2023-04-25T04:37:56.861Z,25.73
2023-04-25T04:38:56.873Z,25.73
2023-04-25T04:39:56.835Z,25.73
2023-04-25T04:40:56.842Z,25.73
2023-04-25T04:41:56.792Z,25.73
2023-04-25T04:42:56.780Z,25.73
2023-04-25T04:43:56.762Z,25.73
2023-04-25T04:44:56.775Z,25.74
2023-04-25T04:45:56.751Z,25.74
2023-04-25T04:46:56.844Z,25.74
2023-04-25T04:47:56.823Z,25.74
2023-04-25T04:48:56.707Z,25.73
2023-04-25T04:49:56.718Z,25.73
2023-04-25T04:50:56.705Z,25.72
2023-04-25T04:51:58.399Z,25.72
2023-04-25T04:52:56.636Z,25.71
2023-04-25T04:53:56.618Z,25.72
2023-04-25T04:54:56.603Z,25.72
2023-04-25T04:55:56.622Z,25.71
2023-04-25T04:56:56.576Z,25.70
2023-04-25T04:57:56.554Z,25.70
2023-04-25T04:58:56.558Z,25.70
2023-04-25T04:59:56.537Z,25.69
2023-04-25T05:01:03.586Z,25.70
2023-04-25T05:01:56.494Z,25.68
2023-04-25T05:02:56.626Z,25.68
2023-04-25T05:03:57.033Z,25.69
2023-04-25T05:04:56.472Z,25.68
2023-04-25T05:05:56.469Z,25.69
2023-04-25T05:06:56.449Z,25.68
2023-04-25T05:07:56.437Z,25.68
2023-04-25T05:08:56.421Z,25.68
2023-04-25T05:09:56.367Z,25.67
2023-04-25T05:10:56.393Z,25.67
2023-04-25T05:11:56.350Z,25.67
2023-04-25T05:12:56.346Z,25.67
2023-04-25T05:13:56.331Z,25.66
2023-04-25T05:14:56.318Z,25.66
2023-04-25T05:15:56.278Z,25.66
2023-04-25T05:16:56.341Z,25.66
2023-04-25T05:17:56.294Z,25.66
2023-04-25T05:18:56.217Z,25.66
2023-04-25T05:19:56.270Z,25.64
2023-04-25T05:20:56.179Z,25.65
2023-04-25T05:21:56.171Z,25.64
2023-04-25T05:22:56.167Z,25.64
2023-04-25T05:23:56.141Z,25.64
2023-04-25T05:24:56.382Z,25.64
2023-04-25T05:25:56.099Z,25.64
2023-04-25T05:26:56.076Z,25.63
2023-04-25T05:27:56.074Z,25.63
2023-04-25T05:28:56.060Z,25.63
2023-04-25T05:29:56.272Z,25.63
2023-04-25T05:30:55.994Z,25.62
2023-04-25T05:31:56.010Z,25.62
2023-04-25T05:32:56.014Z,25.61
2023-04-25T05:33:55.986Z,25.60
2023-04-25T05:34:56.325Z,25.59
2023-04-25T05:35:55.952Z,25.59
2023-04-25T05:36:55.927Z,25.58
2023-04-25T05:37:55.873Z,25.55
2023-04-25T05:38:55.873Z,25.53
2023-04-25T05:39:56.323Z,25.52
2023-04-25T05:40:55.844Z,25.50
2023-04-25T05:41:55.834Z,25.50
2023-04-25T05:42:55.800Z,25.48
2023-04-25T05:43:57.906Z,25.48
2023-04-25T05:44:55.956Z,25.49
2023-04-25T05:46:03.080Z,25.51
2023-04-25T05:46:55.994Z,25.50
2023-04-25T05:47:56.007Z,25.48
2023-04-25T05:48:55.945Z,25.46
2023-04-25T05:49:55.917Z,25.50
2023-04-25T05:50:55.909Z,25.53
2023-04-25T05:51:55.886Z,25.56
2023-04-25T05:52:55.870Z,25.58
2023-04-25T05:53:55.860Z,25.61
2023-04-25T05:54:55.814Z,25.65
2023-04-25T05:55:55.897Z,25.67
2023-04-25T05:56:55.785Z,25.72
2023-04-25T05:57:55.796Z,25.74
2023-04-25T05:58:55.748Z,25.77
2023-04-25T05:59:55.733Z,25.81
2023-04-25T06:00:55.784Z,25.83
2023-04-25T06:01:55.723Z,25.86
2023-04-25T06:02:55.827Z,25.88
2023-04-25T06:03:55.909Z,25.90
2023-04-25T06:04:55.758Z,25.92
2023-04-25T06:05:55.707Z,25.96
2023-04-25T06:06:55.551Z,25.99
2023-04-25T06:07:55.532Z,26.05
2023-04-25T06:08:55.524Z,26.08
2023-04-25T06:09:55.491Z,26.09
2023-04-25T06:10:55.534Z,26.11
2023-04-25T06:11:55.428Z,26.11
2023-04-25T06:12:55.441Z,26.12
2023-04-25T06:13:55.413Z,26.12
2023-04-25T06:14:55.372Z,26.14
2023-04-25T06:15:55.422Z,26.16
2023-04-25T06:16:55.378Z,26.15
2023-04-25T06:17:55.400Z,26.07
2023-04-25T06:18:55.314Z,25.98
2023-04-25T06:19:55.279Z,25.91
2023-04-25T06:20:55.293Z,25.87
2023-04-25T06:21:55.235Z,25.80
2023-04-25T06:22:55.264Z,25.78
2023-04-25T06:23:55.241Z,25.74
2023-04-25T06:24:55.240Z,25.73
2023-04-25T06:25:55.285Z,25.71
2023-04-25T06:26:55.300Z,25.72
2023-04-25T06:27:55.340Z,25.72
2023-04-25T06:28:55.353Z,25.73
2023-04-25T06:29:55.352Z,25.75
2023-04-25T06:30:55.366Z,25.80
2023-04-25T06:31:55.357Z,25.83
2023-04-25T06:32:55.399Z,25.87
2023-04-25T06:33:55.325Z,25.91
2023-04-25T06:34:55.355Z,25.94
2023-04-25T06:35:55.386Z,25.98
2023-04-25T06:36:55.396Z,26.02
2023-04-25T06:37:55.428Z,26.05
2023-04-25T06:38:55.472Z,26.06
2023-04-25T06:39:55.518Z,26.08
2023-04-25T06:40:55.826Z,26.09
2023-04-25T06:41:55.572Z,26.09
2023-04-25T06:42:55.616Z,26.12
2023-04-25T06:43:55.613Z,26.12
2023-04-25T06:44:55.722Z,26.15
2023-04-25T06:45:55.820Z,26.19
2023-04-25T06:46:55.773Z,26.22
2023-04-25T06:47:55.889Z,26.22
2023-04-25T06:48:55.840Z,26.23
2023-04-25T06:49:55.862Z,26.24
2023-04-25T06:50:55.934Z,26.26
2023-04-25T06:51:55.951Z,26.28
2023-04-25T06:52:55.989Z,26.28
2023-04-25T06:53:55.988Z,26.32
2023-04-25T06:54:55.997Z,26.32
2023-04-25T06:55:56.057Z,26.36
2023-04-25T06:56:56.091Z,26.37
2023-04-25T06:57:56.109Z,26.39
2023-04-25T06:58:56.101Z,26.40
2023-04-25T06:59:56.121Z,26.41
2023-04-25T07:00:56.223Z,26.41
2023-04-25T07:01:56.190Z,26.41
2023-04-25T07:02:56.334Z,26.43
2023-04-25T07:03:56.374Z,26.43
2023-04-25T07:04:56.277Z,26.45
2023-04-25T07:05:56.228Z,26.48
2023-04-25T07:06:56.354Z,26.51
2023-04-25T07:07:56.249Z,26.54
2023-04-25T07:08:56.276Z,26.58
2023-04-25T07:09:56.303Z,26.60
2023-04-25T07:10:56.290Z,26.61
2023-04-25T07:11:56.351Z,26.62
2023-04-25T07:12:56.326Z,26.64
2023-04-25T07:13:56.405Z,26.67
2023-04-25T07:14:56.477Z,26.69
2023-04-25T07:15:57.538Z,26.70
2023-04-25T07:16:56.343Z,26.72
2023-04-25T07:17:56.463Z,26.75
2023-04-25T07:18:56.234Z,26.76
2023-04-25T07:19:56.205Z,26.79
2023-04-25T07:20:56.186Z,26.82
2023-04-25T07:21:56.338Z,26.84
2023-04-25T07:22:56.137Z,26.87
2023-04-25T07:23:56.063Z,26.88
2023-04-25T07:24:56.073Z,26.90
2023-04-25T07:25:56.054Z,26.92
2023-04-25T07:26:56.387Z,26.93
2023-04-25T07:27:55.967Z,26.95
2023-04-25T07:28:55.944Z,26.98
2023-04-25T07:29:55.892Z,27.01
2023-04-25T07:30:55.849Z,27.03
2023-04-25T07:31:55.949Z,27.02
2023-04-25T07:32:55.790Z,27.01
2023-04-25T07:33:55.741Z,27.00
2023-04-25T07:34:55.753Z,26.98
2023-04-25T07:35:55.728Z,26.98
2023-04-25T07:36:55.946Z,26.97
2023-04-25T07:37:55.734Z,26.97
2023-04-25T07:38:55.697Z,26.97
2023-04-25T07:39:55.666Z,26.96
2023-04-25T07:40:55.733Z,26.98
2023-04-25T07:41:55.859Z,26.99
2023-04-25T07:42:55.664Z,26.98
2023-04-25T07:43:56.690Z,26.96
2023-04-25T07:44:55.638Z,26.94
2023-04-25T07:45:55.623Z,26.89
2023-04-25T07:46:55.914Z,26.85
2023-04-25T07:47:55.652Z,26.82
2023-04-25T07:48:55.647Z,26.77
2023-04-25T07:49:55.623Z,26.75
2023-04-25T07:50:55.646Z,26.72
2023-04-25T07:51:55.643Z,26.70
2023-04-25T07:52:55.681Z,26.68
2023-04-25T07:53:55.674Z,26.66
2023-04-25T07:54:55.699Z,26.64
2023-04-25T07:55:55.708Z,26.60
2023-04-25T07:56:55.753Z,26.56
2023-04-25T07:57:55.784Z,26.55
2023-04-25T07:58:55.785Z,26.54
2023-04-25T07:59:55.780Z,26.54
2023-04-25T08:00:55.802Z,26.54
2023-04-25T08:01:55.891Z,26.53
2023-04-25T08:02:56.037Z,26.53
2023-04-25T08:03:55.995Z,26.54
2023-04-25T08:04:55.966Z,26.54
2023-04-25T08:05:55.949Z,26.52
2023-04-25T08:06:55.972Z,26.50
2023-04-25T08:07:55.983Z,26.49
2023-04-25T08:08:56.000Z,26.50
2023-04-25T08:09:56.024Z,26.50
2023-04-25T08:10:56.051Z,26.49
2023-04-25T08:11:56.424Z,26.50
2023-04-25T08:12:56.135Z,26.50
2023-04-25T08:13:56.114Z,26.48
2023-04-25T08:14:56.172Z,26.44
2023-04-25T08:15:56.238Z,26.41
2023-04-25T08:16:56.215Z,26.38
2023-04-25T08:17:56.375Z,26.34
2023-04-25T08:18:56.312Z,26.33
2023-04-25T08:19:56.313Z,26.31
2023-04-25T08:20:56.394Z,26.33
2023-04-25T08:21:56.398Z,26.36
2023-04-25T08:22:56.433Z,26.38
2023-04-25T08:23:56.453Z,26.40
2023-04-25T08:24:56.492Z,26.42
2023-04-25T08:25:56.534Z,26.43
2023-04-25T08:26:56.940Z,26.45
2023-04-25T08:27:56.618Z,26.47
2023-04-25T08:28:56.631Z,26.46
2023-04-25T08:29:57.291Z,26.42
2023-04-25T08:30:56.724Z,26.39
2023-04-25T08:31:56.943Z,26.37
2023-04-25T08:32:56.777Z,26.33
2023-04-25T08:33:56.821Z,26.32
2023-04-25T08:34:56.892Z,26.30
2023-04-25T08:35:57.059Z,26.28
2023-04-25T08:36:57.416Z,26.21
2023-04-25T08:37:57.025Z,26.16
2023-04-25T08:38:57.341Z,26.14
2023-04-25T08:39:57.082Z,26.13
2023-04-25T08:40:57.133Z,26.11
2023-04-25T08:41:57.120Z,26.09
2023-04-25T08:42:57.219Z,26.07
2023-04-25T08:43:57.175Z,25.98
2023-04-25T08:44:57.152Z,25.90
2023-04-25T08:45:57.138Z,25.87
2023-04-25T08:46:57.462Z,25.84
2023-04-25T08:47:57.182Z,25.81
2023-04-25T08:48:57.882Z,25.80
2023-04-25T08:49:57.141Z,25.81
2023-04-25T08:50:57.163Z,25.83
2023-04-25T08:51:57.418Z,25.86
2023-04-25T08:52:57.137Z,25.89
2023-04-25T08:53:58.806Z,25.92
2023-04-25T08:54:58.092Z,25.97
2023-04-25T08:55:57.150Z,26.05
2023-04-25T08:56:57.083Z,26.09
2023-04-25T08:57:57.126Z,26.13
2023-04-25T08:58:57.042Z,26.18
2023-04-25T08:59:57.036Z,26.20
2023-04-25T09:00:57.162Z,26.20
2023-04-25T09:01:57.398Z,26.19
2023-04-25T09:02:57.062Z,26.21
2023-04-25T09:03:57.022Z,26.25
2023-04-25T09:04:56.945Z,26.28
2023-04-25T09:05:56.970Z,26.31
2023-04-25T09:06:57.250Z,26.31
2023-04-25T09:07:57.106Z,26.35
2023-04-25T09:08:57.149Z,26.38
2023-04-25T09:09:57.125Z,26.42
2023-04-25T09:10:57.205Z,26.43
2023-04-25T09:11:57.294Z,26.44
2023-04-25T09:12:57.322Z,26.44
2023-04-25T09:13:57.280Z,26.45
2023-04-25T09:14:57.312Z,26.45
2023-04-25T09:15:57.394Z,26.42
2023-04-25T09:16:58.005Z,26.42
2023-04-25T09:17:57.511Z,26.40
2023-04-25T09:18:57.515Z,26.38
2023-04-25T09:19:57.550Z,26.33
2023-04-25T09:21:01.891Z,26.30
2023-04-25T09:21:57.554Z,26.28
2023-04-25T09:22:57.575Z,26.27
2023-04-25T09:23:57.520Z,26.26
2023-04-25T09:24:57.517Z,26.27
2023-04-25T09:25:57.507Z,26.27
2023-04-25T09:26:57.528Z,26.29
2023-04-25T09:27:57.461Z,26.29
2023-04-25T09:28:57.454Z,26.28
2023-04-25T09:29:57.432Z,26.23
2023-04-25T09:30:57.410Z,26.21
2023-04-25T09:31:57.454Z,26.19
2023-04-25T09:32:57.426Z,26.17
2023-04-25T09:33:57.387Z,26.16
2023-04-25T09:34:57.345Z,26.16
2023-04-25T09:35:57.365Z,26.19
2023-04-25T09:36:57.452Z,26.21
2023-04-25T09:37:57.973Z,26.23
2023-04-25T09:38:57.538Z,26.26
2023-04-25T09:39:57.580Z,26.30
2023-04-25T09:40:57.637Z,26.33
2023-04-25T09:41:57.674Z,26.36
2023-04-25T09:42:57.963Z,26.33
2023-04-25T09:43:58.012Z,26.30
2023-04-25T09:44:57.801Z,26.29
2023-04-25T09:45:59.070Z,26.23
2023-04-25T09:46:57.863Z,26.17
2023-04-25T09:47:57.987Z,26.13
2023-04-25T09:48:57.947Z,26.09
2023-04-25T09:49:57.973Z,26.06
2023-04-25T09:50:58.037Z,26.04
2023-04-25T09:51:58.078Z,26.01
2023-04-25T09:52:58.126Z,25.99
2023-04-25T09:53:58.177Z,25.96
2023-04-25T09:54:58.208Z,25.94
2023-04-25T09:55:58.248Z,25.92
2023-04-25T09:56:58.325Z,25.85
2023-04-25T09:57:58.470Z,25.77
2023-04-25T09:58:58.300Z,25.70
2023-04-25T09:59:58.280Z,25.68
2023-04-25T10:00:58.330Z,25.63
2023-04-25T10:01:58.320Z,25.60
2023-04-25T10:02:58.315Z,25.58
2023-04-25T10:03:58.396Z,25.56
2023-04-25T10:04:58.431Z,25.57
2023-04-25T10:05:58.275Z,25.57
2023-04-25T10:06:58.294Z,25.57
2023-04-25T10:07:58.328Z,25.52
2023-04-25T10:08:58.353Z,25.47
2023-04-25T10:09:58.329Z,25.43
2023-04-25T10:10:58.376Z,25.44
2023-04-25T10:11:58.449Z,25.43
2023-04-25T10:12:58.397Z,25.41
2023-04-25T10:13:58.462Z,25.43
2023-04-25T10:14:58.491Z,25.46
2023-04-25T10:15:58.519Z,25.48
2023-04-25T10:16:58.522Z,25.50
2023-04-25T10:17:58.537Z,25.49
2023-04-25T10:18:58.588Z,25.48
2023-04-25T10:19:58.625Z,25.50
2023-04-25T10:20:58.585Z,25.52
2023-04-25T10:21:58.590Z,25.53
2023-04-25T10:22:58.635Z,25.52
2023-04-25T10:23:58.636Z,25.49
2023-04-25T10:24:58.655Z,25.50
2023-04-25T10:25:58.731Z,25.51
2023-04-25T10:26:58.693Z,25.53
2023-04-25T10:27:58.738Z,25.52
2023-04-25T10:28:59.471Z,25.52
2023-04-25T10:29:58.729Z,25.53
2023-04-25T10:30:58.853Z,25.56
2023-04-25T10:31:58.798Z,25.56
2023-04-25T10:32:58.773Z,25.58
2023-04-25T10:33:58.779Z,25.60
2023-04-25T10:34:58.784Z,25.60
2023-04-25T10:35:58.763Z,25.63
2023-04-25T10:36:58.765Z,25.63
2023-04-25T10:37:58.960Z,25.66
2023-04-25T10:38:58.790Z,25.65
2023-04-25T10:39:58.821Z,25.66
2023-04-25T10:40:58.802Z,25.67
2023-04-25T10:41:58.850Z,25.69
2023-04-25T10:42:58.967Z,25.74
2023-04-25T10:43:58.781Z,25.78
2023-04-25T10:44:58.796Z,25.82
2023-04-25T10:45:58.875Z,25.86
2023-04-25T10:46:58.995Z,25.90
2023-04-25T10:47:59.010Z,25.94
2023-04-25T10:48:58.904Z,25.98
2023-04-25T10:49:58.916Z,26.01
2023-04-25T10:50:58.976Z,26.04
2023-04-25T10:51:58.973Z,26.07
2023-04-25T10:52:59.046Z,26.10
2023-04-25T10:53:59.459Z,26.14
2023-04-25T10:54:59.123Z,26.16
2023-04-25T10:55:59.175Z,26.19
2023-04-25T10:56:59.219Z,26.23
2023-04-25T10:57:59.552Z,26.26
2023-04-25T10:58:59.550Z,26.29
2023-04-25T10:59:59.312Z,26.32
2023-04-25T11:00:59.317Z,26.35
2023-04-25T11:01:59.415Z,26.38
2023-04-25T11:02:59.533Z,26.39
2023-04-25T11:03:59.900Z,26.42
2023-04-25T11:04:59.451Z,26.44
2023-04-25T11:05:59.444Z,26.46
2023-04-25T11:08:07.779Z,26.50
2023-04-25T11:09:00.846Z,26.51
2023-04-25T11:09:59.475Z,26.54
2023-04-25T11:10:59.351Z,26.56
2023-04-25T11:11:59.425Z,26.56
2023-04-25T11:12:59.342Z,26.56
2023-04-25T11:13:59.274Z,26.58
2023-04-25T11:14:59.206Z,26.59
2023-04-25T11:16:07.397Z,26.59
2023-04-25T11:18:00.248Z,26.61
2023-04-25T11:18:59.499Z,26.60
2023-04-25T11:19:59.095Z,26.60
2023-04-25T11:20:59.051Z,26.61
2023-04-25T11:21:59.010Z,26.62
2023-04-25T11:22:58.982Z,26.62
2023-04-25T11:23:58.996Z,26.62
2023-04-25T11:24:58.997Z,26.63
2023-04-25T11:25:58.936Z,26.64
2023-04-25T11:26:58.871Z,26.61
2023-04-25T11:27:58.869Z,26.61
2023-04-25T11:28:58.989Z,26.61
2023-04-25T11:29:58.792Z,26.60
2023-04-25T11:30:58.790Z,26.59
2023-04-25T11:31:58.772Z,26.59
2023-04-25T11:32:58.765Z,26.58
2023-04-25T11:33:59.007Z,26.57
2023-04-25T11:34:58.666Z,26.54
2023-04-25T11:35:58.598Z,26.52
2023-04-25T11:36:58.572Z,26.50
2023-04-25T11:37:58.742Z,26.49
2023-04-25T11:38:59.000Z,26.46
2023-04-25T11:39:58.544Z,26.44
2023-04-25T11:40:58.489Z,26.42
2023-04-25T11:41:58.541Z,26.40
2023-04-25T11:42:58.448Z,26.39
2023-04-25T11:43:58.886Z,26.37
2023-04-25T11:44:58.429Z,26.36
2023-04-25T11:45:58.504Z,26.34
2023-04-25T11:46:58.390Z,26.33
2023-04-25T11:47:58.455Z,26.32
2023-04-25T11:48:58.436Z,26.31
2023-04-25T11:49:58.471Z,26.31
2023-04-25T11:50:58.502Z,26.31
2023-04-25T11:51:58.536Z,26.31
2023-04-25T11:52:58.567Z,26.30
2023-04-25T11:53:58.591Z,26.30
2023-04-25T11:54:58.635Z,26.31
2023-04-25T11:55:58.637Z,26.30
2023-04-25T11:56:58.682Z,26.31
2023-04-25T11:57:58.682Z,26.31
2023-04-25T11:58:58.759Z,26.31
2023-04-25T11:59:58.766Z,26.31
2023-04-25T12:00:58.793Z,26.31
2023-04-25T12:01:58.906Z,26.31
2023-04-25T12:02:59.006Z,26.32
2023-04-25T12:03:59.024Z,26.32
2023-04-25T12:05:01.118Z,26.31
2023-04-25T12:06:00.001Z,26.29
2023-04-25T12:06:58.870Z,26.30
2023-04-25T12:07:58.820Z,26.29
2023-04-25T12:08:58.806Z,26.30
2023-04-25T12:09:58.769Z,26.30
2023-04-25T12:10:58.736Z,26.30
2023-04-25T12:11:58.717Z,26.30
2023-04-25T12:12:58.698Z,26.30
2023-04-25T12:13:58.696Z,26.29
2023-04-25T12:14:58.652Z,26.29
2023-04-25T12:15:58.674Z,26.29
2023-04-25T12:16:58.667Z,26.29
2023-04-25T12:17:58.705Z,26.29
2023-04-25T12:18:58.685Z,26.29
2023-04-25T12:19:58.774Z,26.30
2023-04-25T12:20:58.757Z,26.30
2023-04-25T12:21:59.523Z,26.32
2023-04-25T12:22:58.824Z,26.33
2023-04-25T12:23:58.882Z,26.31
2023-04-25T12:24:58.896Z,26.33
2023-04-25T12:25:58.951Z,26.33
2023-04-25T12:26:58.948Z,26.33
2023-04-25T12:27:58.986Z,26.32
2023-04-25T12:28:59.062Z,26.30
2023-04-25T12:29:59.064Z,26.29
2023-04-25T12:30:59.181Z,26.28
2023-04-25T12:31:59.171Z,26.27
2023-04-25T12:32:59.164Z,26.27
2023-04-25T12:33:59.284Z,26.27
2023-04-25T12:34:59.207Z,26.27
2023-04-25T12:35:59.271Z,26.28
2023-04-25T12:36:59.299Z,26.27
2023-04-25T12:37:59.291Z,26.30
2023-04-25T12:38:59.350Z,26.32
2023-04-25T12:39:59.382Z,26.34
2023-04-25T12:40:59.429Z,26.37
2023-04-25T12:41:59.470Z,26.40
2023-04-25T12:42:59.473Z,26.42
2023-04-25T12:43:59.514Z,26.44
2023-04-25T12:44:59.524Z,26.44
2023-04-25T12:45:59.549Z,26.47
2023-04-25T12:46:59.691Z,26.48
2023-04-25T12:48:00.397Z,26.49
2023-04-25T12:49:11.776Z,26.51
2023-04-25T12:50:00.618Z,26.53
2023-04-25T12:50:59.576Z,26.55
2023-04-25T12:51:59.561Z,26.56
2023-04-25T12:52:59.556Z,26.57
2023-04-25T12:53:59.522Z,26.60
2023-04-25T12:54:59.485Z,26.61